TimeCDT,TemperatureF,Dew PointF,Humidity,Sea Level PressureIn,VisibilityMPH,Wind Direction,Wind SpeedMPH,Gust SpeedMPH,PrecipitationIn,Events,Conditions,WindDirDegrees,DateUTC
12:08 AM,51.1,37.0,59,-9999,-9999.0,South,8.1,-,N/A,,Unknown,170,2013-09-29 05:08:00
12:28 AM,50.0,36.1,59,-9999,-9999.0,South,8.1,-,N/A,,Unknown,180,2013-09-29 05:28:00
12:48 AM,50.0,36.1,59,-9999,-9999.0,South,10.4,-,N/A,,Unknown,190,2013-09-29 05:48:00
1:08 AM,50.0,35.1,57,-9999,-9999.0,South,10.4,-,N/A,,Unknown,190,2013-09-29 06:08:00
1:28 AM,50.0,36.1,59,-9999,-9999.0,SSW,9.2,-,N/A,,Unknown,200,2013-09-29 06:28:00
1:48 AM,50.0,36.1,59,-9999,-9999.0,SSW,9.2,-,N/A,,Unknown,200,2013-09-29 06:48:00
2:08 AM,50.0,36.1,59,-9999,-9999.0,South,11.5,-,N/A,,Unknown,180,2013-09-29 07:08:00
2:28 AM,50.0,36.1,59,-9999,-9999.0,South,9.2,-,N/A,,Unknown,180,2013-09-29 07:28:00
2:48 AM,48.9,35.1,59,-9999,-9999.0,South,9.2,-,N/A,,Unknown,180,2013-09-29 07:48:00
3:08 AM,48.9,35.1,59,-9999,-9999.0,South,9.2,-,N/A,,Unknown,180,2013-09-29 08:08:00
3:28 AM,48.9,34.2,57,-9999,-9999.0,South,12.7,-,N/A,,Unknown,190,2013-09-29 08:28:00
3:48 AM,48.9,36.1,61,-9999,-9999.0,South,10.4,-,N/A,,Unknown,180,2013-09-29 08:48:00
4:08 AM,48.0,35.1,61,-9999,-9999.0,South,9.2,-,N/A,,Unknown,190,2013-09-29 09:08:00
4:28 AM,48.0,35.1,61,-9999,-9999.0,SSW,8.1,-,N/A,,Unknown,200,2013-09-29 09:28:00
4:48 AM,48.0,34.2,59,-9999,-9999.0,SSW,10.4,-,N/A,,Unknown,200,2013-09-29 09:48:00
5:08 AM,48.0,35.1,61,-9999,-9999.0,SSW,8.1,-,N/A,,Unknown,210,2013-09-29 10:08:00
5:28 AM,48.0,34.2,59,-9999,-9999.0,SSW,9.2,-,N/A,,Unknown,210,2013-09-29 10:28:00
5:48 AM,48.0,35.1,61,-9999,-9999.0,SW,8.1,-,N/A,,Unknown,220,2013-09-29 10:48:00
6:08 AM,46.9,35.1,63,-9999,-9999.0,SSW,8.1,-,N/A,,Unknown,210,2013-09-29 11:08:00
6:28 AM,46.0,35.1,66,-9999,-9999.0,SSW,6.9,-,N/A,,Unknown,210,2013-09-29 11:28:00
6:48 AM,46.9,34.2,61,-9999,-9999.0,SSW,9.2,-,N/A,,Unknown,200,2013-09-29 11:48:00
7:08 AM,46.9,34.2,61,-9999,-9999.0,SSW,9.2,-,N/A,,Unknown,210,2013-09-29 12:08:00
7:28 AM,46.0,35.1,66,-9999,-9999.0,SSW,8.1,-,N/A,,Unknown,210,2013-09-29 12:28:00
7:48 AM,46.0,34.2,63,-9999,-9999.0,SSW,9.2,-,N/A,,Unknown,200,2013-09-29 12:48:00
8:08 AM,48.0,34.2,59,-9999,-9999.0,SSW,11.5,-,N/A,,Unknown,200,2013-09-29 13:08:00
8:28 AM,48.9,34.2,57,-9999,-9999.0,SSW,11.5,-,N/A,,Unknown,200,2013-09-29 13:28:00
8:48 AM,50.0,36.1,59,-9999,-9999.0,SSW,8.1,-,N/A,,Unknown,200,2013-09-29 13:48:00
9:08 AM,52.0,35.1,53,-9999,-9999.0,SSW,12.7,-,N/A,,Unknown,200,2013-09-29 14:08:00
9:28 AM,55.0,38.1,53,-9999,-9999.0,SSW,10.4,-,N/A,,Unknown,200,2013-09-29 14:28:00
9:48 AM,55.9,38.1,51,-9999,-9999.0,SSW,9.2,-,N/A,,Unknown,200,2013-09-29 14:48:00
10:08 AM,57.9,39.0,49,-9999,-9999.0,South,10.4,-,N/A,,Unknown,190,2013-09-29 15:08:00
10:28 AM,61.0,40.1,46,-9999,-9999.0,SSW,10.4,-,N/A,,Unknown,200,2013-09-29 15:28:00
10:48 AM,63.0,41.2,45,-9999,-9999.0,SSW,11.5,-,N/A,,Unknown,200,2013-09-29 15:48:00
11:08 AM,64.9,41.2,42,-9999,-9999.0,SSW,13.8,-,N/A,,Unknown,200,2013-09-29 16:08:00
11:28 AM,66.0,41.2,40,-9999,-9999.0,South,15.0,-,N/A,,Unknown,190,2013-09-29 16:28:00
11:48 AM,68.0,44.1,42,-9999,-9999.0,SSW,11.5,-,N/A,,Unknown,200,2013-09-29 16:48:00
12:08 PM,69.1,41.2,36,-9999,-9999.0,South,13.8,-,N/A,,Unknown,190,2013-09-29 17:08:00
12:28 PM,70.0,42.1,36,-9999,-9999.0,South,13.8,-,N/A,,Unknown,190,2013-09-29 17:28:00
12:48 PM,71.1,40.1,32,-9999,-9999.0,South,16.1,-,N/A,,Unknown,190,2013-09-29 17:48:00
1:08 PM,73.0,40.1,30,-9999,-9999.0,South,16.1,-,N/A,,Unknown,190,2013-09-29 18:08:00
1:28 PM,73.9,40.1,29,-9999,-9999.0,South,15.0,-,N/A,,Unknown,190,2013-09-29 18:28:00
1:48 PM,75.0,41.2,30,-9999,-9999.0,South,13.8,-,N/A,,Unknown,180,2013-09-29 18:48:00
2:08 PM,75.9,40.1,28,-9999,-9999.0,South,16.1,-,N/A,,Unknown,190,2013-09-29 19:08:00
2:28 PM,77.0,41.2,28,-9999,-9999.0,South,11.5,-,N/A,,Unknown,190,2013-09-29 19:28:00
2:48 PM,77.0,39.0,25,-9999,-9999.0,South,15.0,-,N/A,,Unknown,170,2013-09-29 19:48:00
3:08 PM,78.1,41.2,27,-9999,-9999.0,South,10.4,-,N/A,,Unknown,180,2013-09-29 20:08:00
3:28 PM,78.1,40.1,26,-9999,-9999.0,South,16.1,-,N/A,,Unknown,180,2013-09-29 20:28:00
3:48 PM,78.1,39.0,25,-9999,-9999.0,SSW,11.5,-,N/A,,Unknown,200,2013-09-29 20:48:00
4:08 PM,79.0,41.2,26,-9999,-9999.0,South,12.7,-,N/A,,Unknown,180,2013-09-29 21:08:00
4:28 PM,80.1,40.1,24,-9999,-9999.0,South,13.8,-,N/A,,Unknown,170,2013-09-29 21:28:00
4:48 PM,80.1,39.0,23,-9999,-9999.0,South,12.7,-,N/A,,Unknown,190,2013-09-29 21:48:00
5:08 PM,80.1,38.1,22,-9999,-9999.0,South,10.4,-,N/A,,Unknown,180,2013-09-29 22:08:00
5:28 PM,80.1,37.0,21,-9999,-9999.0,South,11.5,-,N/A,,Unknown,190,2013-09-29 22:28:00
5:48 PM,80.1,38.1,22,-9999,-9999.0,South,8.1,-,N/A,,Unknown,190,2013-09-29 22:48:00
6:08 PM,80.1,38.1,22,-9999,-9999.0,South,8.1,-,N/A,,Unknown,180,2013-09-29 23:08:00
6:28 PM,79.0,39.0,24,-9999,-9999.0,South,4.6,-,N/A,,Unknown,190,2013-09-29 23:28:00
6:48 PM,77.0,42.1,29,-9999,-9999.0,SSW,3.5,-,N/A,,Unknown,200,2013-09-29 23:48:00
7:08 PM,72.0,43.2,35,-9999,-9999.0,SSE,8.1,-,N/A,,Unknown,150,2013-09-30 00:08:00
7:28 PM,68.0,42.1,39,-9999,-9999.0,South,5.8,-,N/A,,Unknown,170,2013-09-30 00:28:00
7:48 PM,63.0,43.2,48,-9999,-9999.0,SSE,6.9,-,N/A,,Unknown,150,2013-09-30 00:48:00
8:08 PM,60.1,42.1,51,-9999,-9999.0,SE,9.2,-,N/A,,Unknown,140,2013-09-30 01:08:00
8:28 PM,60.1,42.1,51,-9999,-9999.0,SE,10.4,-,N/A,,Unknown,140,2013-09-30 01:28:00
8:48 PM,62.1,42.1,48,-9999,-9999.0,SE,10.4,-,N/A,,Unknown,130,2013-09-30 01:48:00
9:08 PM,59.0,43.2,56,-9999,-9999.0,SE,10.4,-,N/A,,Unknown,130,2013-09-30 02:08:00
9:28 PM,57.9,43.2,58,-9999,-9999.0,SE,10.4,-,N/A,,Unknown,130,2013-09-30 02:28:00
9:48 PM,57.0,43.2,60,-9999,-9999.0,SE,10.4,-,N/A,,Unknown,140,2013-09-30 02:48:00
10:08 PM,55.9,43.2,62,-9999,-9999.0,SE,11.5,-,N/A,,Unknown,140,2013-09-30 03:08:00
10:28 PM,55.9,44.1,64,-9999,-9999.0,SE,11.5,-,N/A,,Unknown,140,2013-09-30 03:28:00
10:48 PM,55.9,44.1,64,-9999,-9999.0,SE,11.5,-,N/A,,Unknown,140,2013-09-30 03:48:00
11:08 PM,55.0,44.1,67,-9999,-9999.0,SE,11.5,-,N/A,,Unknown,140,2013-09-30 04:08:00
11:28 PM,54.0,44.1,69,-9999,-9999.0,SE,10.4,-,N/A,,Unknown,140,2013-09-30 04:28:00
11:48 PM,53.1,44.1,71,-9999,-9999.0,SSE,10.4,-,N/A,,Unknown,150,2013-09-30 04:48:00